Time;durP1;ratioP1;P1;durP2;ratioP2;P2;SDS_P1;SDS_P2;PMS_P1;PMS_P2;Temp;Humidity;BMP_temperature;BMP_pressure;BME280_temperature;BME280_humidity;BME280_pressure;Samples;Min_cycle;Max_cycle;Signal;HPM_P1;HPM_P2
2021/04/22 00:00:14;;;;;;;6.20;5.60;;;13.00;51.90;;;;;;5061982;28;20455;-79
2021/04/22 00:02:41;;;;;;;7.77;7.07;;;13.00;51.40;;;;;;5063106;28;20934;-79
2021/04/22 00:05:20;;;;;;;10.17;7.10;;;13.00;53.00;;;;;;5054219;28;20476;-77
2021/04/22 00:07:50;;;;;;;7.73;7.00;;;12.90;52.60;;;;;;5044514;28;20460;-79
2021/04/22 00:10:21;;;;;;;7.80;6.27;;;12.90;53.90;;;;;;5056922;28;20447;-78
2021/04/22 00:12:48;;;;;;;8.90;6.13;;;12.80;54.90;;;;;;5046698;28;20784;-80
2021/04/22 00:15:18;;;;;;;7.80;6.50;;;12.80;74.80;;;;;;5048193;28;20480;-80
2021/04/22 00:17:47;;;;;;;8.40;6.57;;;12.70;55.10;;;;;;5052750;28;20478;-81
2021/04/22 00:20:15;;;;;;;6.40;5.30;;;12.80;56.30;;;;;;5061901;28;21891;-82
2021/04/22 00:22:43;;;;;;;5.87;5.37;;;12.80;56.60;;;;;;5048902;28;20460;-82
2021/04/22 00:25:14;;;;;;;6.20;5.60;;;12.80;56.50;;;;;;5048761;28;20490;-82
2021/04/22 00:27:41;;;;;;;7.50;5.53;;;12.90;55.90;;;;;;5052259;28;20463;-80
2021/04/22 00:30:11;;;;;;;6.23;5.63;;;12.80;57.40;;;;;;5058731;28;20542;-81
2021/04/22 00:32:38;;;;;;;6.70;6.10;;;12.90;57.90;;;;;;5067166;28;20456;-81
2021/04/22 00:35:08;;;;;;;6.40;5.60;;;12.90;59.00;;;;;;5065396;28;20565;-81
2021/04/22 00:37:36;;;;;;;6.20;5.60;;;12.80;60.30;;;;;;5061345;28;21378;-80
2021/04/22 00:40:06;;;;;;;7.07;6.10;;;12.70;63.50;;;;;;5064859;28;20465;-80
2021/04/22 00:42:34;;;;;;;9.53;6.30;;;12.70;65.70;;;;;;5049602;28;20821;-81
2021/04/22 00:45:02;;;;;;;6.20;5.60;;;12.70;68.00;;;;;;5048188;28;20536;-83
2021/04/22 00:47:29;;;;;;;8.53;6.77;;;12.80;69.00;;;;;;5051759;28;20548;-82
2021/04/22 00:49:56;;;;;;;11.57;6.17;;;12.80;68.90;;;;;;5056199;28;20453;-82
2021/04/22 00:52:23;;;;;;;7.00;6.40;;;12.90;69.80;;;;;;5054272;28;20819;-78
2021/04/22 00:54:50;;;;;;;10.00;7.70;;;13.00;71.50;;;;;;5060661;28;20492;-79
2021/04/22 00:57:17;;;;;;;8.83;7.90;;;13.00;71.90;;;;;;5058805;28;20964;-80
2021/04/22 00:59:46;;;;;;;10.30;7.67;;;13.00;72.40;;;;;;5054767;28;21013;-78
2021/04/22 01:02:13;;;;;;;9.73;8.73;;;13.10;73.90;;;;;;5049136;28;20452;-79
2021/04/22 01:04:41;;;;;;;13.13;8.53;;;13.10;74.10;;;;;;5051171;28;20912;-79
2021/04/22 01:07:09;;;;;;;11.17;8.97;;;13.10;75.50;;;;;;5056179;28;21011;-76
2021/04/22 01:09:36;;;;;;;8.77;7.87;;;13.20;74.00;;;;;;5046941;28;20545;-79
2021/04/22 01:12:04;;;;;;;10.53;8.80;;;13.20;74.60;;;;;;5046667;28;20439;-79
2021/04/22 01:14:31;;;;;;;12.17;9.77;;;13.20;75.50;;;;;;5046438;28;20477;-80
2021/04/22 01:16:59;;;;;;;12.03;9.97;;;13.30;76.40;;;;;;5055813;28;20468;-81
2021/04/22 01:19:27;;;;;;;13.00;8.77;;;13.30;78.80;;;;;;5044170;28;20514;-82
2021/04/22 01:21:55;;;;;;;11.50;10.03;;;13.30;78.40;;;;;;5046795;28;20481;-81
2021/04/22 01:24:22;;;;;;;9.27;8.30;;;13.40;80.10;;;;;;5045978;28;20550;-80
2021/04/22 01:26:49;;;;;;;9.67;8.13;;;13.30;82.80;;;;;;5053824;28;20504;-82
2021/04/22 01:29:16;;;;;;;8.90;8.00;;;13.20;81.50;;;;;;5064927;28;20471;-78
2021/04/22 01:31:43;;;;;;;8.97;8.03;;;13.30;80.50;;;;;;5047726;28;20553;-80
2021/04/22 01:34:11;;;;;;;10.50;8.40;;;13.20;82.70;;;;;;5062829;28;20511;-81
2021/04/22 01:36:41;;;;;;;8.90;8.00;;;13.20;81.90;;;;;;5055175;28;20489;-81
2021/04/22 01:39:11;;;;;;;11.83;8.00;;;13.20;81.50;;;;;;5054208;28;20455;-81
2021/04/22 01:41:38;;;;;;;11.50;9.90;;;13.20;80.80;;;;;;5058091;28;20456;-82
2021/04/22 01:44:11;;;;;;;8.90;8.00;;;13.20;82.10;;;;;;5050158;28;20474;-80
2021/04/22 01:46:38;;;;;;;12.27;8.70;;;13.20;83.10;;;;;;5055839;28;21329;-79
2021/04/22 01:49:05;;;;;;;10.40;8.90;;;13.20;88.50;;;;;;5056419;28;20443;-80
2021/04/22 01:51:33;;;;;;;11.13;9.60;;;13.10;93.90;;;;;;5061956;28;20451;-78
2021/04/22 01:54:00;;;;;;;9.83;8.93;;;13.10;88.40;;;;;;5048330;28;21083;-79
2021/04/22 01:56:28;;;;;;;10.73;9.67;;;13.10;90.50;;;;;;5054390;28;20473;-80
2021/04/22 01:58:55;;;;;;;11.07;8.97;;;13.20;90.40;;;;;;5054203;28;21502;-82
2021/04/22 02:01:22;;;;;;;13.40;10.90;;;13.20;91.40;;;;;;5058107;28;20470;-82
2021/04/22 02:03:49;;;;;;;10.07;9.07;;;13.10;93.10;;;;;;5061711;28;20448;-80
2021/04/22 02:06:17;;;;;;;14.23;12.33;;;13.10;93.20;;;;;;5058388;28;20487;-81
2021/04/22 02:08:44;;;;;;;9.67;8.70;;;13.20;93.90;;;;;;5062865;28;20437;-79
2021/04/22 02:11:12;;;;;;;11.57;9.60;;;13.20;94.30;;;;;;5046001;28;20450;-79
2021/04/22 02:13:40;;;;;;;11.13;9.60;;;13.30;94.60;;;;;;5056302;28;20451;-78
2021/04/22 02:16:08;;;;;;;10.70;9.60;;;13.30;99.90;;;;;;5045006;28;20446;-79
2021/04/22 02:18:35;;;;;;;14.13;10.30;;;13.30;95.70;;;;;;5048772;28;20459;-81
2021/04/22 02:21:02;;;;;;;11.20;10.00;;;13.30;96.60;;;;;;5060305;28;20485;-82
2021/04/22 02:23:30;;;;;;;14.50;11.20;;;13.30;97.70;;;;;;5051037;28;20489;-78
2021/04/22 02:25:57;;;;;;;12.97;11.40;;;13.30;98.10;;;;;;5057085;28;20489;-80
2021/04/22 02:28:24;;;;;;;11.13;9.80;;;13.30;98.40;;;;;;5055905;28;20492;-77
2021/04/22 02:30:52;;;;;;;14.00;11.00;;;13.30;98.70;;;;;;5046689;28;20466;-80
2021/04/22 02:33:20;;;;;;;10.87;9.77;;;13.20;98.40;;;;;;5049339;28;20467;-81
2021/04/22 02:35:49;;;;;;;12.30;11.00;;;13.20;99.40;;;;;;5057232;28;20836;-80
2021/04/22 02:38:18;;;;;;;14.40;11.40;;;13.20;99.50;;;;;;5047168;28;20464;-81
2021/04/22 02:40:48;;;;;;;13.07;11.67;;;13.20;99.90;;;;;;5062114;28;21291;-81
2021/04/22 02:43:18;;;;;;;14.60;13.07;;;13.20;99.90;;;;;;5046780;28;20464;-80
2021/04/22 02:45:49;;;;;;;14.43;12.93;;;13.20;99.90;;;;;;5045159;28;20479;-79
2021/04/22 02:48:17;;;;;;;14.50;12.50;;;13.20;99.90;;;;;;5052201;28;20454;-79
2021/04/22 02:50:47;;;;;;;16.43;11.80;;;13.20;99.90;;;;;;5059400;28;20459;-80
2021/04/22 02:53:14;;;;;;;16.07;13.30;;;13.20;99.90;;;;;;5056159;28;20886;-83
2021/04/22 02:55:43;;;;;;;16.27;12.73;;;13.20;99.90;;;;;;5045257;28;20541;-81
2021/04/22 02:58:22;;;;;;;16.70;12.07;;;13.20;99.90;;;;;;5043970;28;20458;-79
2021/04/22 03:00:50;;;;;;;14.90;13.07;;;13.20;99.90;;;;;;5059710;28;20464;-82
2021/04/22 03:03:18;;;;;;;15.80;14.07;;;13.10;99.90;;;;;;5063196;28;20451;-80
2021/04/22 03:05:45;;;;;;;15.63;13.90;;;13.10;99.90;;;;;;5049420;28;20543;-79
2021/04/22 03:08:13;;;;;;;16.10;13.70;;;13.10;99.90;;;;;;5048496;28;20947;-79
2021/04/22 03:10:40;;;;;;;16.80;13.80;;;13.10;99.90;;;;;;5061270;28;20515;-81
2021/04/22 03:13:07;;;;;;;16.63;13.53;;;13.10;99.90;;;;;;5061731;28;20512;-78
2021/04/22 03:15:35;;;;;;;18.20;14.27;;;13.10;99.90;;;;;;5050443;28;20529;-78
2021/04/22 03:18:04;;;;;;;21.07;14.60;;;13.20;99.90;;;;;;5053768;28;20458;-78
2021/04/22 03:20:32;;;;;;;16.53;13.97;;;13.20;99.90;;;;;;5042257;28;20458;-78
2021/04/22 03:23:00;;;;;;;17.80;15.93;;;13.10;99.90;;;;;;5041824;28;21073;-78
2021/04/22 03:25:28;;;;;;;18.90;15.30;;;13.10;99.90;;;;;;5059697;28;21332;-79
2021/04/22 03:27:56;;;;;;;18.63;16.00;;;13.10;99.90;;;;;;5051440;28;20482;-79
2021/04/22 03:30:26;;;;;;;20.00;15.93;;;13.10;99.90;;;;;;5052359;28;20573;-79
2021/04/22 03:32:53;;;;;;;20.90;16.83;;;13.00;99.90;;;;;;5060373;28;20452;-79
2021/04/22 03:35:21;;;;;;;23.23;16.73;;;13.10;99.90;;;;;;5056892;28;20468;-79
2021/04/22 03:37:49;;;;;;;21.93;16.40;;;13.00;99.90;;;;;;5057171;28;20463;-80
2021/04/22 03:40:18;;;;;;;24.17;16.60;;;13.10;99.90;;;;;;5052155;28;20944;-81
2021/04/22 03:42:45;;;;;;;18.90;15.60;;;13.10;99.90;;;;;;5045811;28;20455;-83
2021/04/22 03:45:14;;;;;;;22.83;16.20;;;13.00;99.90;;;;;;5054615;28;20486;-79
2021/04/22 03:47:42;;;;;;;23.67;18.43;;;13.00;99.90;;;;;;5052285;28;20460;-81
2021/04/22 03:50:11;;;;;;;22.57;17.90;;;13.00;99.90;;;;;;5044213;28;20460;-79
2021/04/22 03:52:39;;;;;;;22.57;17.83;;;12.90;99.90;;;;;;5042601;28;20518;-81
2021/04/22 03:55:09;;;;;;;23.73;17.13;;;12.90;99.90;;;;;;5038631;28;20486;-81
2021/04/22 03:57:37;;;;;;;21.73;16.67;;;12.90;99.90;;;;;;5050973;28;20453;-81
2021/04/22 04:00:06;;;;;;;20.37;16.40;;;12.90;99.90;;;;;;5070471;28;20465;-82
2021/04/22 04:02:33;;;;;;;21.03;15.40;;;12.90;99.90;;;;;;5039232;28;20534;-81
2021/04/22 04:05:00;;;;;;;23.17;19.60;;;12.80;99.90;;;;;;5056675;28;20490;-80
2021/04/22 04:07:27;;;;;;;22.00;17.10;;;12.90;99.90;;;;;;5059899;28;20505;-80
2021/04/22 04:09:55;;;;;;;19.33;16.37;;;12.80;99.90;;;;;;5062494;28;20514;-80
2021/04/22 04:12:27;;;;;;;24.87;17.87;;;12.80;99.90;;;;;;5042087;28;20957;-78
2021/04/22 04:14:54;;;;;;;20.43;16.40;;;12.70;99.90;;;;;;5050898;28;20511;-79
2021/04/22 04:17:21;;;;;;;23.60;19.97;;;12.70;99.90;;;;;;5054033;28;20515;-79
2021/04/22 04:19:49;;;;;;;21.03;17.33;;;12.70;99.90;;;;;;5056234;28;20466;-73
2021/04/22 04:22:16;;;;;;;18.07;15.70;;;12.70;99.90;;;;;;5051422;28;20496;-74
2021/04/22 04:24:44;;;;;;;17.73;15.90;;;12.70;99.90;;;;;;5058120;28;20489;-79
2021/04/22 04:27:11;;;;;;;18.07;14.20;;;12.80;99.90;;;;;;5058341;28;20494;-80
2021/04/22 04:29:39;;;;;;;21.70;18.70;;;12.80;99.90;;;;;;5045904;28;20480;-79
2021/04/22 04:32:07;;;;;;;19.93;14.97;;;12.70;99.90;;;;;;5060139;28;20525;-79
2021/04/22 04:34:34;;;;;;;22.33;14.90;;;12.70;99.90;;;;;;5055225;28;20835;-77
2021/04/22 04:37:03;;;;;;;18.67;14.43;;;12.60;99.90;;;;;;5057424;28;20515;-79
2021/04/22 04:39:30;;;;;;;20.67;15.30;;;12.60;99.90;;;;;;5061108;28;20513;-79
2021/04/22 04:41:58;;;;;;;19.57;15.47;;;12.50;99.90;;;;;;5059654;28;20463;-80
2021/04/22 04:44:25;;;;;;;16.90;15.13;;;12.50;99.90;;;;;;5047249;28;20555;-79
2021/04/22 04:46:53;;;;;;;17.40;13.77;;;12.50;99.90;;;;;;5050691;28;20996;-80
2021/04/22 04:49:21;;;;;;;20.50;16.00;;;12.50;99.90;;;;;;5047038;28;20507;-81
2021/04/22 04:51:48;;;;;;;18.63;15.37;;;12.50;99.90;;;;;;5053347;28;20542;-80
2021/04/22 04:54:15;;;;;;;23.70;15.60;;;12.50;99.90;;;;;;5046426;28;20471;-80
2021/04/22 04:56:42;;;;;;;22.03;17.33;;;12.50;99.90;;;;;;5053940;28;20456;-81
2021/04/22 04:59:10;;;;;;;21.73;17.43;;;12.50;99.90;;;;;;5052735;28;20470;-81
2021/04/22 05:01:37;;;;;;;21.10;17.90;;;12.40;99.90;;;;;;5051127;28;20443;-82
2021/04/22 05:04:06;;;;;;;24.67;19.73;;;12.40;99.90;;;;;;5053157;28;20482;-81
2021/04/22 05:06:33;;;;;;;23.57;17.40;;;12.40;99.90;;;;;;5055451;28;20466;-80
2021/04/22 05:09:00;;;;;;;27.47;21.00;;;12.30;99.90;;;;;;5047158;28;20455;-77
2021/04/22 05:11:27;;;;;;;31.83;22.80;;;12.30;99.90;;;;;;5048641;28;21354;-79
2021/04/22 05:13:54;;;;;;;24.27;20.57;;;12.30;99.90;;;;;;5055997;28;20225;-78
2021/04/22 05:16:21;;;;;;;28.40;23.63;;;12.30;99.90;;;;;;5045786;28;20449;-78
2021/04/22 05:18:49;;;;;;;26.27;21.43;;;12.30;99.90;;;;;;5057831;28;20201;-78
2021/04/22 05:21:17;;;;;;;25.70;19.73;;;12.30;99.90;;;;;;5042592;28;20976;-78
2021/04/22 05:23:44;;;;;;;28.67;20.50;;;12.40;99.90;;;;;;5049570;28;21023;-78
2021/04/22 05:26:12;;;;;;;24.73;19.07;;;12.40;99.90;;;;;;5046370;28;20475;-79
2021/04/22 05:28:39;;;;;;;24.00;18.40;;;12.40;99.90;;;;;;5047010;28;20472;-79
2021/04/22 05:31:07;;;;;;;26.50;20.40;;;12.50;99.90;;;;;;5050203;28;20796;-78
2021/04/22 05:33:34;;;;;;;26.00;19.30;;;12.40;99.90;;;;;;5048890;28;20613;-77
2021/04/22 05:36:04;;;;;;;28.43;21.00;;;12.40;99.90;;;;;;5050007;28;21055;-76
2021/04/22 05:38:32;;;;;;;26.70;19.10;;;12.40;99.90;;;;;;5052054;28;20480;-76
2021/04/22 05:40:59;;;;;;;25.23;18.60;;;12.40;99.90;;;;;;5055307;28;20450;-78
2021/04/22 05:43:27;;;;;;;24.37;18.67;;;12.50;99.90;;;;;;5055783;28;20458;-79
2021/04/22 05:45:54;;;;;;;23.40;19.10;;;12.50;99.90;;;;;;5043514;28;21155;-78
2021/04/22 05:48:21;;;;;;;22.27;15.20;;;12.40;99.90;;;;;;5050799;28;20459;-76
2021/04/22 05:50:48;;;;;;;19.13;17.03;;;12.40;99.90;;;;;;5060752;28;20983;-80
2021/04/22 05:53:16;;;;;;;21.27;16.20;;;12.40;99.90;;;;;;5047218;28;20490;-79
2021/04/22 05:55:45;;;;;;;24.23;16.43;;;12.40;99.90;;;;;;5058636;28;20477;-79
2021/04/22 05:58:13;;;;;;;20.27;15.17;;;12.40;99.90;;;;;;5048678;28;20507;-78
2021/04/22 06:00:40;;;;;;;20.53;16.40;;;12.40;99.90;;;;;;5057168;28;20954;-79
2021/04/22 06:03:08;;;;;;;20.90;15.70;;;12.40;99.90;;;;;;5051383;28;22008;-78
2021/04/22 06:05:35;;;;;;;16.87;14.73;;;12.50;99.90;;;;;;5042881;28;20566;-78
2021/04/22 06:08:03;;;;;;;20.33;15.53;;;12.50;99.90;;;;;;5046995;28;20536;-79
2021/04/22 06:10:31;;;;;;;21.63;15.93;;;12.60;99.90;;;;;;5045684;28;20463;-79
2021/04/22 06:13:03;;;;;;;17.60;14.53;;;12.60;99.90;;;;;;5043790;28;20494;-79
2021/04/22 06:15:31;;;;;;;24.00;15.07;;;12.60;99.90;;;;;;5053448;28;20995;-78
2021/04/22 06:17:58;;;;;;;22.80;16.20;;;12.60;99.90;;;;;;5049218;28;20489;-79
2021/04/22 06:20:26;;;;;;;19.07;14.97;;;12.50;99.90;;;;;;5061329;28;20459;-79
2021/04/22 06:22:54;;;;;;;20.20;16.87;;;12.60;99.90;;;;;;5047028;28;20461;-77
2021/04/22 06:25:23;;;;;;;20.33;15.33;;;12.60;99.90;;;;;;5044442;28;21091;-79
2021/04/22 06:27:51;;;;;;;19.30;15.07;;;12.60;99.90;;;;;;5051187;28;20470;-79
2021/04/22 06:30:26;;;;;;;19.57;15.20;;;12.60;99.90;;;;;;5042369;28;20456;-77
2021/04/22 06:32:53;;;;;;;21.93;17.07;;;12.60;99.90;;;;;;5049840;28;20460;-78
2021/04/22 06:35:21;;;;;;;17.97;16.03;;;12.60;99.90;;;;;;5069918;28;20548;-79
2021/04/22 06:37:48;;;;;;;18.63;15.90;;;12.60;99.90;;;;;;5055930;28;20459;-77
2021/04/22 06:40:17;;;;;;;21.77;16.30;;;12.50;99.90;;;;;;5057328;28;20457;-78
2021/04/22 06:42:52;;;;;;;17.40;14.93;;;12.50;99.90;;;;;;5057079;28;20514;-79
2021/04/22 06:45:20;;;;;;;27.17;16.30;;;12.60;99.90;;;;;;5048303;28;20484;-79
2021/04/22 06:47:48;;;;;;;22.97;16.37;;;12.50;99.90;;;;;;5047883;28;20454;-78
2021/04/22 06:50:18;;;;;;;22.00;15.57;;;12.60;99.90;;;;;;5045773;28;20451;-79
2021/04/22 06:52:45;;;;;;;19.50;15.77;;;12.60;99.90;;;;;;5046605;28;20445;-78
2021/04/22 06:55:15;;;;;;;19.37;15.30;;;12.60;99.90;;;;;;5051966;28;20481;-77
2021/04/22 06:57:57;;;;;;;16.50;13.50;;;12.50;99.90;;;;;;5063181;28;20538;-79
2021/04/22 07:00:27;;;;;;;20.37;16.83;;;12.50;99.90;;;;;;5046596;28;20547;-78
2021/04/22 07:02:55;;;;;;;16.97;13.90;;;12.60;99.90;;;;;;5057967;28;20458;-78
2021/04/22 07:05:23;;;;;;;24.97;15.33;;;12.60;99.90;;;;;;5052797;28;20916;-77
2021/04/22 07:07:51;;;;;;;20.80;16.17;;;12.60;99.90;;;;;;5044011;28;20469;-76
2021/04/22 07:10:18;;;;;;;21.17;15.47;;;12.70;99.90;;;;;;5048705;28;20447;-76
2021/04/22 07:12:45;;;;;;;19.27;15.97;;;12.70;99.90;;;;;;5054260;28;20452;-76
2021/04/22 07:15:14;;;;;;;21.80;16.23;;;12.70;99.90;;;;;;5047597;28;20481;-77
2021/04/22 07:17:42;;;;;;;19.00;15.20;;;12.70;99.90;;;;;;5047955;28;20450;-76
2021/04/22 07:20:15;;;;;;;18.70;14.50;;;12.60;99.90;;;;;;5043650;28;20616;-78
2021/04/22 07:22:51;;;;;;;20.97;16.30;;;12.60;99.90;;;;;;5040101;28;20475;-77
2021/04/22 07:25:20;;;;;;;20.37;13.83;;;12.70;99.90;;;;;;5044221;28;20488;-78
2021/04/22 07:27:47;;;;;;;22.83;15.97;;;12.60;99.90;;;;;;5046723;28;20512;-77
2021/04/22 07:30:16;;;;;;;17.90;14.30;;;12.60;99.90;;;;;;5040410;28;20475;-77
2021/04/22 07:32:44;;;;;;;19.40;15.60;;;12.30;99.90;;;;;;5048533;28;20818;-78
2021/04/22 07:35:15;;;;;;;21.37;15.87;;;12.60;99.90;;;;;;5043503;28;20531;-76
2021/04/22 07:37:42;;;;;;;21.50;15.53;;;12.70;99.90;;;;;;5049698;28;20547;-78
2021/04/22 07:40:13;;;;;;;24.37;16.40;;;12.70;99.90;;;;;;5049672;28;20467;-77
2021/04/22 07:42:40;;;;;;;17.47;12.97;;;12.80;99.90;;;;;;5042857;28;20451;-77
2021/04/22 07:45:08;;;;;;;18.90;13.57;;;12.90;99.90;;;;;;5048533;28;20486;-78
2021/04/22 07:47:36;;;;;;;20.30;14.50;;;12.90;99.90;;;;;;5050198;28;20474;-78
2021/04/22 07:50:06;;;;;;;18.33;12.07;;;13.00;99.90;;;;;;5053864;28;20486;-78
2021/04/22 07:52:34;;;;;;;17.90;13.83;;;13.00;99.90;;;;;;5047211;28;20467;-78
2021/04/22 07:55:03;;;;;;;14.80;12.90;;;12.90;99.90;;;;;;5045063;28;20489;-78
2021/04/22 07:57:30;;;;;;;18.67;13.13;;;12.90;99.90;;;;;;5048980;28;20967;-79
2021/04/22 07:59:58;;;;;;;18.73;13.60;;;12.90;99.90;;;;;;5052890;28;20456;-78
2021/04/22 08:02:37;;;;;;;18.40;15.10;;;12.90;99.90;;;;;;5052224;28;20451;-77
2021/04/22 08:05:07;;;;;;;18.20;13.53;;;12.90;99.90;;;;;;5046992;28;20840;-77
2021/04/22 08:07:36;;;;;;;18.17;14.20;;;12.90;99.90;;;;;;5049475;28;20472;-76
2021/04/22 08:10:07;;;;;;;15.47;13.80;;;13.20;99.90;;;;;;5045132;28;20957;-79
2021/04/22 08:12:34;;;;;;;19.20;13.10;;;13.00;99.90;;;;;;5063600;28;20474;-79
2021/04/22 08:15:02;;;;;;;20.17;12.70;;;13.00;99.90;;;;;;5049966;28;21091;-78
2021/04/22 08:17:30;;;;;;;16.20;13.10;;;13.00;99.90;;;;;;5048848;28;20457;-77
2021/04/22 08:19:59;;;;;;;18.40;12.60;;;13.00;99.90;;;;;;5050105;28;20482;-78
2021/04/22 08:22:26;;;;;;;17.33;12.77;;;12.90;99.90;;;;;;5045829;28;20468;-76
2021/04/22 08:24:57;;;;;;;13.13;11.73;;;12.90;99.90;;;;;;5057508;28;20569;-77
2021/04/22 08:27:25;;;;;;;12.80;9.13;;;13.00;99.90;;;;;;5052732;28;20481;-78
2021/04/22 08:29:53;;;;;;;14.33;11.10;;;12.90;99.90;;;;;;5046707;28;20459;-78
2021/04/22 08:32:20;;;;;;;11.13;9.67;;;13.00;99.90;;;;;;5044535;28;20719;-76
2021/04/22 08:34:48;;;;;;;12.87;9.37;;;13.10;99.90;;;;;;5049810;28;20490;-78
2021/04/22 08:37:15;;;;;;;14.47;10.27;;;13.20;99.90;;;;;;5058675;28;20474;-76
2021/04/22 08:39:42;;;;;;;16.93;13.00;;;13.10;99.90;;;;;;5056009;28;20472;-78
2021/04/22 08:42:11;;;;;;;13.47;9.97;;;13.00;99.90;;;;;;5048068;28;20466;-77
2021/04/22 08:44:38;;;;;;;13.70;10.33;;;13.20;99.90;;;;;;5046118;28;20481;-78
2021/04/22 08:47:06;;;;;;;15.53;11.83;;;13.20;99.90;;;;;;5052383;28;21264;-77
2021/04/22 08:49:33;;;;;;;13.53;11.47;;;13.20;99.90;;;;;;5043242;28;20462;-78
2021/04/22 08:52:02;;;;;;;13.97;10.53;;;13.30;99.90;;;;;;5048981;28;20459;-77
2021/04/22 08:54:29;;;;;;;13.27;9.90;;;13.30;99.90;;;;;;5053426;28;20979;-77
2021/04/22 08:56:58;;;;;;;11.83;10.00;;;13.30;99.90;;;;;;5054570;28;20454;-77
2021/04/22 08:59:26;;;;;;;11.37;8.60;;;13.30;99.90;;;;;;5047285;28;20456;-78
2021/04/22 09:01:53;;;;;;;10.43;9.33;;;13.30;99.90;;;;;;5055215;28;20465;-77
2021/04/22 09:04:21;;;;;;;16.00;9.67;;;13.40;99.90;;;;;;5046518;28;20478;-77
2021/04/22 09:06:48;;;;;;;14.20;10.20;;;13.50;99.90;;;;;;5043610;28;20502;-77
2021/04/22 09:09:15;;;;;;;11.07;9.47;;;13.60;99.90;;;;;;5045721;28;20480;-76
2021/04/22 09:11:45;;;;;;;13.97;9.53;;;13.80;99.90;;;;;;5049767;28;20472;-77
2021/04/22 09:14:13;;;;;;;14.40;11.30;;;13.80;99.90;;;;;;5046991;28;20484;-76
2021/04/22 09:16:42;;;;;;;12.40;10.17;;;13.70;99.90;;;;;;5051803;28;21014;-77
2021/04/22 09:19:13;;;;;;;11.37;9.50;;;13.70;99.90;;;;;;5047793;28;20996;-78
2021/04/22 09:21:44;;;;;;;9.80;8.80;;;13.70;99.90;;;;;;5054294;28;20458;-77
2021/04/22 09:24:16;;;;;;;15.03;9.00;;;13.80;99.90;;;;;;5053519;28;20477;-77
2021/04/22 09:26:48;;;;;;;11.10;8.70;;;13.90;99.90;;;;;;5051916;28;20481;-77
2021/04/22 09:29:30;;;;;;;11.63;8.40;;;13.90;99.90;;;;;;5045213;28;20828;-76
2021/04/22 09:32:09;;;;;;;9.20;8.30;;;13.90;99.90;;;;;;5048210;28;21156;-78
2021/04/22 09:34:36;;;;;;;11.07;9.00;;;14.00;99.90;;;;;;5053640;28;20477;-78
2021/04/22 09:37:04;;;;;;;11.80;9.13;;;14.10;99.90;;;;;;5047193;28;20497;-77
2021/04/22 09:39:33;;;;;;;12.90;8.27;;;14.10;99.90;;;;;;5047842;28;20468;-76
2021/04/22 09:42:08;;;;;;;16.23;9.37;;;14.20;99.90;;;;;;5046066;28;20456;-77
2021/04/22 09:44:37;;;;;;;9.47;7.80;;;14.20;99.90;;;;;;5048890;28;21022;-78
2021/04/22 09:47:09;;;;;;;9.63;8.37;;;14.20;99.90;;;;;;5046135;28;20577;-75
2021/04/22 09:49:58;;;;;;;12.27;9.33;;;14.30;99.90;;;;;;5056406;28;20946;-76
2021/04/22 09:52:30;;;;;;;13.70;9.87;;;14.30;99.90;;;;;;5044468;28;20744;-78
2021/04/22 09:54:59;;;;;;;11.37;8.30;;;14.30;99.90;;;;;;5052503;28;20482;-77
2021/04/22 09:57:30;;;;;;;13.83;8.80;;;14.40;99.90;;;;;;5048756;28;20494;-77
2021/04/22 09:59:59;;;;;;;12.40;9.20;;;14.40;99.90;;;;;;5046693;28;20491;-77
2021/04/22 10:02:28;;;;;;;15.53;9.47;;;14.60;99.90;;;;;;5045179;28;20842;-77
2021/04/22 10:04:56;;;;;;;10.40;8.77;;;14.60;99.90;;;;;;5048914;28;20472;-77
2021/04/22 10:07:25;;;;;;;11.37;8.73;;;14.80;99.90;;;;;;5040436;28;20501;-77
2021/04/22 10:09:54;;;;;;;11.10;8.33;;;14.80;99.90;;;;;;5039227;28;20462;-76
2021/04/22 10:12:26;;;;;;;9.57;8.60;;;14.90;99.90;;;;;;5054080;28;20457;-79
2021/04/22 10:14:54;;;;;;;14.47;9.40;;;14.90;99.90;;;;;;5054412;28;21026;-77
2021/04/22 10:17:23;;;;;;;14.23;8.40;;;15.00;99.90;;;;;;5046208;28;20564;-77
2021/04/22 10:20:00;;;;;;;11.40;9.10;;;15.10;99.90;;;;;;5046260;28;21001;-76
2021/04/22 10:22:32;;;;;;;13.67;8.00;;;15.10;99.90;;;;;;5051391;28;20473;-77
2021/04/22 10:25:02;;;;;;;13.57;9.03;;;15.10;99.90;;;;;;5045817;28;20481;-76
2021/04/22 10:27:30;;;;;;;12.87;8.73;;;15.10;99.90;;;;;;5039773;28;20490;-75
2021/04/22 10:29:58;;;;;;;10.50;6.93;;;15.20;99.90;;;;;;5049852;28;20466;-76
2021/04/22 10:32:26;;;;;;;10.77;7.63;;;15.30;99.90;;;;;;5046174;28;20516;-75
2021/04/22 10:34:54;;;;;;;15.30;8.30;;;15.20;99.90;;;;;;5043441;28;20487;-78
2021/04/22 10:37:24;;;;;;;10.07;8.03;;;15.20;99.90;;;;;;5044759;28;20498;-77
2021/04/22 10:39:56;;;;;;;9.57;7.60;;;15.30;99.90;;;;;;5046020;28;20457;-78
2021/04/22 10:42:24;;;;;;;12.83;8.50;;;15.50;99.90;;;;;;5048370;28;20470;-78
2021/04/22 10:44:52;;;;;;;9.30;7.77;;;15.50;99.90;;;;;;5043752;28;20884;-78
2021/04/22 10:47:20;;;;;;;7.47;6.70;;;15.50;99.90;;;;;;5048269;28;21015;-78
2021/04/22 10:49:49;;;;;;;9.17;7.80;;;15.60;99.90;;;;;;5043360;28;20457;-78
2021/04/22 10:52:18;;;;;;;10.47;8.17;;;15.80;99.90;;;;;;5060484;28;20467;-78
2021/04/22 10:54:50;;;;;;;9.10;7.20;;;15.80;99.90;;;;;;5048017;28;20757;-78
2021/04/22 10:57:20;;;;;;;10.13;7.57;;;15.80;99.90;;;;;;5044455;28;20571;-77
2021/04/22 10:59:59;;;;;;;13.97;7.83;;;15.80;99.90;;;;;;5046100;28;20474;-77
2021/04/22 11:02:45;;;;;;;8.87;7.43;;;15.90;99.90;;;;;;5047256;28;21420;-78
2021/04/22 11:05:21;;;;;;;8.90;7.40;;;16.00;99.90;;;;;;5045971;28;20511;-77
2021/04/22 11:07:56;;;;;;;8.73;7.07;;;16.00;99.90;;;;;;5046089;28;20498;-77
2021/04/22 11:10:32;;;;;;;10.80;9.13;;;16.10;99.90;;;;;;5049090;28;20453;-77
2021/04/22 11:13:15;;;;;;;8.27;7.47;;;16.00;99.90;;;;;;5049947;28;20519;-78
2021/04/22 11:15:46;;;;;;;10.80;6.70;;;16.10;99.90;;;;;;5043283;28;20702;-76
2021/04/22 11:18:14;;;;;;;14.47;8.40;;;16.20;99.90;;;;;;5051492;28;20460;-78
2021/04/22 11:20:45;;;;;;;9.97;7.63;;;16.20;99.90;;;;;;5042800;28;21225;-76
2021/04/22 11:23:13;;;;;;;12.40;7.17;;;16.20;99.90;;;;;;5047626;28;20487;-75
2021/04/22 11:25:49;;;;;;;13.83;7.33;;;16.30;99.90;;;;;;5045662;28;21017;-77
2021/04/22 11:28:17;;;;;;;9.37;7.67;;;16.40;99.90;;;;;;5046259;28;20473;-76
2021/04/22 11:30:44;;;;;;;11.13;7.67;;;16.40;99.90;;;;;;5047578;28;20459;-76
2021/04/22 11:33:12;;;;;;;9.57;6.90;;;16.40;99.90;;;;;;5043524;28;20966;-77
2021/04/22 11:35:50;;;;;;;14.20;7.20;;;16.50;99.40;;;;;;5056688;28;20495;-77
2021/04/22 11:38:17;;;;;;;6.47;5.87;;;16.50;98.00;;;;;;5042452;28;20502;-75
2021/04/22 11:40:48;;;;;;;7.50;5.20;;;16.50;95.80;;;;;;5050240;28;20439;-75
2021/04/22 11:43:20;;;;;;;9.87;7.17;;;16.60;94.20;;;;;;5044860;28;21011;-75
2021/04/22 11:45:51;;;;;;;12.27;8.47;;;16.60;92.20;;;;;;5043860;28;20475;-75
2021/04/22 11:48:20;;;;;;;19.90;12.90;;;16.70;99.60;;;;;;5046503;28;20477;-75
2021/04/22 11:50:50;;;;;;;8.37;7.13;;;16.90;97.90;;;;;;5051741;28;20960;-75
2021/04/22 11:53:20;;;;;;;8.83;6.27;;;17.00;97.00;;;;;;5051485;28;21178;-75
2021/04/22 11:55:56;;;;;;;10.17;6.03;;;17.10;97.20;;;;;;5042150;28;20479;-75
2021/04/22 11:58:25;;;;;;;6.00;4.90;;;17.30;99.50;;;;;;5047622;28;20472;-75
2021/04/22 12:00:54;;;;;;;6.20;5.57;;;17.40;98.90;;;;;;5060553;28;20463;-75
2021/04/22 12:03:24;;;;;;;6.43;5.80;;;17.30;95.10;;;;;;5044259;28;20464;-75
2021/04/22 12:05:53;;;;;;;10.57;6.53;;;17.40;93.40;;;;;;5044870;28;20484;-76
2021/04/22 12:08:27;;;;;;;8.63;5.70;;;17.40;93.60;;;;;;5044003;28;20491;-75
2021/04/22 12:10:56;;;;;;;8.37;5.00;;;17.30;90.60;;;;;;5044925;28;21367;-76
2021/04/22 12:13:23;;;;;;;7.90;4.57;;;17.40;89.40;;;;;;5042126;28;20461;-74
2021/04/22 12:15:53;;;;;;;5.07;4.10;;;17.40;90.50;;;;;;5045847;28;20485;-75
2021/04/22 12:18:22;;;;;;;4.80;4.03;;;17.50;87.40;;;;;;5048180;28;20492;-74
2021/04/22 12:20:50;;;;;;;5.47;3.33;;;17.50;84.50;;;;;;5046812;28;20465;-74
2021/04/22 12:23:27;;;;;;;4.33;3.00;;;17.50;82.30;;;;;;5047847;28;20842;-74
2021/04/22 12:26:18;;;;;;;4.90;3.47;;;17.50;77.10;;;;;;5047221;28;20463;-75
2021/04/22 12:28:51;;;;;;;4.73;2.90;;;17.60;79.10;;;;;;5046670;28;20462;-75
2021/04/22 12:31:24;;;;;;;7.40;4.57;;;17.60;73.20;;;;;;5052559;28;20464;-76
2021/04/22 12:33:51;;;;;;;3.27;2.70;;;17.70;72.40;;;;;;5049575;28;20459;-76
2021/04/22 12:36:19;;;;;;;2.23;2.03;;;17.70;70.70;;;;;;5044117;28;21052;-76
2021/04/22 12:38:47;;;;;;;3.40;2.40;;;17.70;66.50;;;;;;5051402;28;20474;-74
2021/04/22 12:41:16;;;;;;;5.10;2.87;;;17.70;64.70;;;;;;5046418;28;20492;-75